sensor_id;sensor_type;location;lat;lon;timestamp;P1;durP1;ratioP1;P2;durP2;ratioP2
23730;SDS011;12046;44.702;10.622;2023-02-18T00:01:27;31.23;;;21.05;;
23730;SDS011;12046;44.702;10.622;2023-02-18T00:03:56;26.67;;;20.75;;
23730;SDS011;12046;44.702;10.622;2023-02-18T00:06:24;29.95;;;21.60;;
23730;SDS011;12046;44.702;10.622;2023-02-18T00:08:52;30.10;;;21.13;;
23730;SDS011;12046;44.702;10.622;2023-02-18T00:11:19;26.95;;;20.90;;
23730;SDS011;12046;44.702;10.622;2023-02-18T00:13:53;26.20;;;20.25;;
23730;SDS011;12046;44.702;10.622;2023-02-18T00:16:20;25.75;;;19.80;;
23730;SDS011;12046;44.702;10.622;2023-02-18T00:18:47;24.98;;;20.02;;
23730;SDS011;12046;44.702;10.622;2023-02-18T00:21:13;31.65;;;21.02;;
23730;SDS011;12046;44.702;10.622;2023-02-18T00:23:39;30.55;;;23.58;;
23730;SDS011;12046;44.702;10.622;2023-02-18T00:26:07;26.92;;;21.52;;
23730;SDS011;12046;44.702;10.622;2023-02-18T00:28:35;31.10;;;22.92;;
23730;SDS011;12046;44.702;10.622;2023-02-18T00:31:05;28.35;;;20.85;;
23730;SDS011;12046;44.702;10.622;2023-02-18T00:33:34;28.30;;;22.42;;
23730;SDS011;12046;44.702;10.622;2023-02-18T00:36:01;27.98;;;21.45;;
23730;SDS011;12046;44.702;10.622;2023-02-18T00:38:28;26.60;;;20.73;;
23730;SDS011;12046;44.702;10.622;2023-02-18T00:40:54;27.98;;;20.90;;
23730;SDS011;12046;44.702;10.622;2023-02-18T00:43:20;28.17;;;22.00;;
23730;SDS011;12046;44.702;10.622;2023-02-18T00:45:45;27.38;;;21.05;;
23730;SDS011;12046;44.702;10.622;2023-02-18T00:48:11;24.60;;;19.52;;
23730;SDS011;12046;44.702;10.622;2023-02-18T00:50:37;25.15;;;19.63;;
23730;SDS011;12046;44.702;10.622;2023-02-18T00:53:03;26.05;;;19.25;;
23730;SDS011;12046;44.702;10.622;2023-02-18T00:55:28;30.50;;;20.05;;
23730;SDS011;12046;44.702;10.622;2023-02-18T00:57:54;26.08;;;18.48;;
23730;SDS011;12046;44.702;10.622;2023-02-18T01:00:20;26.50;;;20.05;;
23730;SDS011;12046;44.702;10.622;2023-02-18T01:02:46;22.95;;;18.88;;
23730;SDS011;12046;44.702;10.622;2023-02-18T01:05:12;24.42;;;18.45;;
23730;SDS011;12046;44.702;10.622;2023-02-18T01:07:38;22.55;;;18.40;;
23730;SDS011;12046;44.702;10.622;2023-02-18T01:10:04;24.63;;;18.00;;
23730;SDS011;12046;44.702;10.622;2023-02-18T01:12:30;24.95;;;18.85;;
23730;SDS011;12046;44.702;10.622;2023-02-18T01:14:56;27.70;;;17.75;;
23730;SDS011;12046;44.702;10.622;2023-02-18T01:17:22;21.33;;;17.23;;
23730;SDS011;12046;44.702;10.622;2023-02-18T01:19:47;25.73;;;18.02;;
23730;SDS011;12046;44.702;10.622;2023-02-18T01:22:13;23.42;;;17.67;;
23730;SDS011;12046;44.702;10.622;2023-02-18T01:24:39;21.50;;;16.38;;
23730;SDS011;12046;44.702;10.622;2023-02-18T01:27:04;19.67;;;15.45;;
23730;SDS011;12046;44.702;10.622;2023-02-18T01:29:30;21.50;;;17.17;;
23730;SDS011;12046;44.702;10.622;2023-02-18T01:31:56;19.83;;;15.20;;
23730;SDS011;12046;44.702;10.622;2023-02-18T01:34:21;18.73;;;15.73;;
23730;SDS011;12046;44.702;10.622;2023-02-18T01:36:47;21.95;;;15.60;;
23730;SDS011;12046;44.702;10.622;2023-02-18T01:39:13;15.85;;;13.93;;
23730;SDS011;12046;44.702;10.622;2023-02-18T01:41:39;18.58;;;15.43;;
23730;SDS011;12046;44.702;10.622;2023-02-18T01:44:24;19.73;;;15.93;;
23730;SDS011;12046;44.702;10.622;2023-02-18T01:46:50;18.02;;;14.48;;
23730;SDS011;12046;44.702;10.622;2023-02-18T01:49:18;18.60;;;14.57;;
23730;SDS011;12046;44.702;10.622;2023-02-18T01:51:53;18.08;;;14.65;;
23730;SDS011;12046;44.702;10.622;2023-02-18T01:54:30;17.80;;;14.02;;
23730;SDS011;12046;44.702;10.622;2023-02-18T02:02:27;17.63;;;13.45;;
23730;SDS011;12046;44.702;10.622;2023-02-18T02:04:54;17.02;;;13.50;;
23730;SDS011;12046;44.702;10.622;2023-02-18T02:07:21;22.20;;;13.82;;
23730;SDS011;12046;44.702;10.622;2023-02-18T02:09:49;16.95;;;13.75;;
23730;SDS011;12046;44.702;10.622;2023-02-18T02:20:17;16.85;;;14.20;;
23730;SDS011;12046;44.702;10.622;2023-02-18T02:26:02;16.83;;;13.60;;
23730;SDS011;12046;44.702;10.622;2023-02-18T02:29:07;20.15;;;15.07;;
23730;SDS011;12046;44.702;10.622;2023-02-18T02:34:51;18.85;;;13.85;;
23730;SDS011;12046;44.702;10.622;2023-02-18T02:56:42;18.15;;;13.25;;
23730;SDS011;12046;44.702;10.622;2023-02-18T02:59:09;17.73;;;13.38;;
23730;SDS011;12046;44.702;10.622;2023-02-18T03:04:58;18.30;;;13.43;;
23730;SDS011;12046;44.702;10.622;2023-02-18T03:10:13;15.85;;;13.18;;
23730;SDS011;12046;44.702;10.622;2023-02-18T03:16:30;14.95;;;12.38;;
23730;SDS011;12046;44.702;10.622;2023-02-18T03:24:26;17.33;;;12.95;;
23730;SDS011;12046;44.702;10.622;2023-02-18T03:26:30;15.77;;;12.40;;
23730;SDS011;12046;44.702;10.622;2023-02-18T03:28:59;16.02;;;13.20;;
23730;SDS011;12046;44.702;10.622;2023-02-18T03:31:27;15.82;;;11.77;;
23730;SDS011;12046;44.702;10.622;2023-02-18T03:33:57;17.67;;;13.45;;
23730;SDS011;12046;44.702;10.622;2023-02-18T03:36:30;17.02;;;14.02;;
23730;SDS011;12046;44.702;10.622;2023-02-18T03:38:59;17.52;;;13.75;;
23730;SDS011;12046;44.702;10.622;2023-02-18T03:41:28;17.52;;;14.18;;
23730;SDS011;12046;44.702;10.622;2023-02-18T03:43:58;20.15;;;13.48;;
23730;SDS011;12046;44.702;10.622;2023-02-18T03:46:26;17.85;;;14.52;;
23730;SDS011;12046;44.702;10.622;2023-02-18T03:48:53;20.13;;;14.88;;
23730;SDS011;12046;44.702;10.622;2023-02-18T03:51:19;17.30;;;13.85;;
23730;SDS011;12046;44.702;10.622;2023-02-18T03:53:45;17.00;;;13.88;;
23730;SDS011;12046;44.702;10.622;2023-02-18T03:56:12;18.23;;;14.45;;
23730;SDS011;12046;44.702;10.622;2023-02-18T03:58:38;17.10;;;12.98;;
23730;SDS011;12046;44.702;10.622;2023-02-18T04:01:04;17.98;;;14.05;;
23730;SDS011;12046;44.702;10.622;2023-02-18T04:03:30;17.65;;;13.20;;
23730;SDS011;12046;44.702;10.622;2023-02-18T04:05:56;15.30;;;12.27;;
23730;SDS011;12046;44.702;10.622;2023-02-18T04:08:22;16.48;;;12.85;;
23730;SDS011;12046;44.702;10.622;2023-02-18T04:10:48;18.92;;;13.30;;
23730;SDS011;12046;44.702;10.622;2023-02-18T04:13:14;15.48;;;12.38;;
23730;SDS011;12046;44.702;10.622;2023-02-18T04:15:44;16.02;;;12.38;;
23730;SDS011;12046;44.702;10.622;2023-02-18T04:18:10;14.88;;;11.82;;
23730;SDS011;12046;44.702;10.622;2023-02-18T04:20:36;16.10;;;11.85;;
23730;SDS011;12046;44.702;10.622;2023-02-18T04:23:03;16.42;;;12.65;;
23730;SDS011;12046;44.702;10.622;2023-02-18T04:25:29;15.57;;;12.48;;
23730;SDS011;12046;44.702;10.622;2023-02-18T04:27:56;19.77;;;12.85;;
23730;SDS011;12046;44.702;10.622;2023-02-18T04:30:21;15.77;;;12.07;;
23730;SDS011;12046;44.702;10.622;2023-02-18T04:32:47;16.50;;;13.02;;
23730;SDS011;12046;44.702;10.622;2023-02-18T04:35:13;15.88;;;12.63;;
23730;SDS011;12046;44.702;10.622;2023-02-18T04:37:39;16.10;;;12.75;;
23730;SDS011;12046;44.702;10.622;2023-02-18T04:40:05;19.85;;;13.85;;
23730;SDS011;12046;44.702;10.622;2023-02-18T04:42:31;16.48;;;11.98;;
23730;SDS011;12046;44.702;10.622;2023-02-18T04:44:58;16.58;;;12.95;;
23730;SDS011;12046;44.702;10.622;2023-02-18T04:47:24;14.77;;;12.35;;
23730;SDS011;12046;44.702;10.622;2023-02-18T04:49:50;17.05;;;12.35;;
23730;SDS011;12046;44.702;10.622;2023-02-18T04:52:15;18.48;;;13.38;;
23730;SDS011;12046;44.702;10.622;2023-02-18T04:54:41;14.95;;;12.07;;
23730;SDS011;12046;44.702;10.622;2023-02-18T04:57:07;15.73;;;11.65;;
23730;SDS011;12046;44.702;10.622;2023-02-18T04:59:33;15.30;;;11.75;;
23730;SDS011;12046;44.702;10.622;2023-02-18T05:01:58;17.73;;;12.15;;
23730;SDS011;12046;44.702;10.622;2023-02-18T05:04:24;15.82;;;11.20;;
23730;SDS011;12046;44.702;10.622;2023-02-18T05:06:50;16.48;;;12.43;;
23730;SDS011;12046;44.702;10.622;2023-02-18T05:09:16;13.85;;;11.80;;
23730;SDS011;12046;44.702;10.622;2023-02-18T05:11:41;15.40;;;12.65;;
23730;SDS011;12046;44.702;10.622;2023-02-18T05:14:07;16.00;;;11.55;;
23730;SDS011;12046;44.702;10.622;2023-02-18T05:16:33;15.52;;;12.27;;
23730;SDS011;12046;44.702;10.622;2023-02-18T05:18:59;14.93;;;11.60;;
23730;SDS011;12046;44.702;10.622;2023-02-18T05:21:25;15.77;;;11.52;;
23730;SDS011;12046;44.702;10.622;2023-02-18T05:23:50;15.63;;;10.38;;
23730;SDS011;12046;44.702;10.622;2023-02-18T05:26:16;17.02;;;11.25;;
23730;SDS011;12046;44.702;10.622;2023-02-18T05:28:42;15.48;;;10.18;;
23730;SDS011;12046;44.702;10.622;2023-02-18T05:31:08;14.75;;;11.43;;
23730;SDS011;12046;44.702;10.622;2023-02-18T05:33:34;14.43;;;11.30;;
23730;SDS011;12046;44.702;10.622;2023-02-18T05:35:59;16.58;;;11.73;;
23730;SDS011;12046;44.702;10.622;2023-02-18T05:38:25;13.73;;;11.13;;
23730;SDS011;12046;44.702;10.622;2023-02-18T05:40:51;16.25;;;11.68;;
23730;SDS011;12046;44.702;10.622;2023-02-18T05:43:17;14.55;;;11.50;;
23730;SDS011;12046;44.702;10.622;2023-02-18T05:45:42;19.20;;;12.10;;
23730;SDS011;12046;44.702;10.622;2023-02-18T05:48:08;16.45;;;11.70;;
23730;SDS011;12046;44.702;10.622;2023-02-18T05:50:34;16.10;;;11.60;;
23730;SDS011;12046;44.702;10.622;2023-02-18T05:53:00;13.80;;;11.38;;
23730;SDS011;12046;44.702;10.622;2023-02-18T05:55:25;14.80;;;11.30;;
23730;SDS011;12046;44.702;10.622;2023-02-18T05:57:51;14.43;;;10.68;;
23730;SDS011;12046;44.702;10.622;2023-02-18T06:00:17;13.02;;;10.45;;
23730;SDS011;12046;44.702;10.622;2023-02-18T06:02:43;12.02;;;10.25;;
23730;SDS011;12046;44.702;10.622;2023-02-18T06:05:09;16.65;;;11.07;;
23730;SDS011;12046;44.702;10.622;2023-02-18T06:07:35;15.00;;;11.40;;
23730;SDS011;12046;44.702;10.622;2023-02-18T06:10:01;13.55;;;10.73;;
23730;SDS011;12046;44.702;10.622;2023-02-18T06:12:27;17.13;;;11.70;;
23730;SDS011;12046;44.702;10.622;2023-02-18T06:14:53;13.45;;;11.25;;
23730;SDS011;12046;44.702;10.622;2023-02-18T06:17:19;14.60;;;11.32;;
23730;SDS011;12046;44.702;10.622;2023-02-18T06:19:46;16.30;;;11.90;;
23730;SDS011;12046;44.702;10.622;2023-02-18T06:22:13;15.63;;;11.30;;
23730;SDS011;12046;44.702;10.622;2023-02-18T06:24:39;14.40;;;11.43;;
23730;SDS011;12046;44.702;10.622;2023-02-18T06:27:05;17.48;;;11.95;;
23730;SDS011;12046;44.702;10.622;2023-02-18T06:29:31;13.70;;;11.23;;
23730;SDS011;12046;44.702;10.622;2023-02-18T06:31:57;14.30;;;10.98;;
23730;SDS011;12046;44.702;10.622;2023-02-18T06:34:23;14.02;;;11.13;;
23730;SDS011;12046;44.702;10.622;2023-02-18T06:36:50;17.38;;;12.20;;
23730;SDS011;12046;44.702;10.622;2023-02-18T06:39:16;14.35;;;11.52;;
23730;SDS011;12046;44.702;10.622;2023-02-18T06:41:42;14.55;;;12.45;;
23730;SDS011;12046;44.702;10.622;2023-02-18T06:44:08;12.35;;;11.02;;
23730;SDS011;12046;44.702;10.622;2023-02-18T06:46:33;12.35;;;11.05;;
23730;SDS011;12046;44.702;10.622;2023-02-18T06:48:59;14.45;;;11.18;;
23730;SDS011;12046;44.702;10.622;2023-02-18T06:51:25;12.30;;;10.52;;
23730;SDS011;12046;44.702;10.622;2023-02-18T06:53:51;12.52;;;10.45;;
23730;SDS011;12046;44.702;10.622;2023-02-18T06:56:17;14.55;;;11.75;;
23730;SDS011;12046;44.702;10.622;2023-02-18T06:58:42;14.10;;;11.38;;
23730;SDS011;12046;44.702;10.622;2023-02-18T07:01:08;14.13;;;11.50;;
23730;SDS011;12046;44.702;10.622;2023-02-18T07:03:34;15.05;;;11.13;;
23730;SDS011;12046;44.702;10.622;2023-02-18T07:06:00;15.18;;;11.15;;
23730;SDS011;12046;44.702;10.622;2023-02-18T07:08:25;14.50;;;10.93;;
23730;SDS011;12046;44.702;10.622;2023-02-18T07:10:51;14.98;;;11.13;;
23730;SDS011;12046;44.702;10.622;2023-02-18T07:13:17;14.80;;;11.07;;
23730;SDS011;12046;44.702;10.622;2023-02-18T07:15:43;20.42;;;10.85;;
23730;SDS011;12046;44.702;10.622;2023-02-18T07:18:09;17.05;;;10.85;;
23730;SDS011;12046;44.702;10.622;2023-02-18T07:20:34;13.52;;;11.32;;
23730;SDS011;12046;44.702;10.622;2023-02-18T07:23:00;13.13;;;11.02;;
23730;SDS011;12046;44.702;10.622;2023-02-18T07:25:26;13.30;;;11.05;;
23730;SDS011;12046;44.702;10.622;2023-02-18T07:27:51;14.35;;;9.82;;
23730;SDS011;12046;44.702;10.622;2023-02-18T07:30:18;16.60;;;11.40;;
23730;SDS011;12046;44.702;10.622;2023-02-18T07:32:44;12.77;;;10.55;;
23730;SDS011;12046;44.702;10.622;2023-02-18T07:35:12;12.88;;;11.05;;
23730;SDS011;12046;44.702;10.622;2023-02-18T07:37:39;14.77;;;12.15;;
23730;SDS011;12046;44.702;10.622;2023-02-18T07:40:08;20.02;;;12.85;;
23730;SDS011;12046;44.702;10.622;2023-02-18T07:42:36;18.92;;;13.25;;
23730;SDS011;12046;44.702;10.622;2023-02-18T07:45:02;20.45;;;14.38;;
23730;SDS011;12046;44.702;10.622;2023-02-18T07:47:28;19.73;;;14.10;;
23730;SDS011;12046;44.702;10.622;2023-02-18T07:49:54;16.88;;;15.02;;
23730;SDS011;12046;44.702;10.622;2023-02-18T07:52:19;19.45;;;15.60;;
23730;SDS011;12046;44.702;10.622;2023-02-18T07:54:45;18.88;;;14.27;;
23730;SDS011;12046;44.702;10.622;2023-02-18T07:57:11;17.70;;;14.15;;
23730;SDS011;12046;44.702;10.622;2023-02-18T07:59:37;19.38;;;14.80;;
23730;SDS011;12046;44.702;10.622;2023-02-18T08:02:03;18.05;;;15.02;;
23730;SDS011;12046;44.702;10.622;2023-02-18T08:04:31;18.20;;;15.20;;
23730;SDS011;12046;44.702;10.622;2023-02-18T08:06:57;18.38;;;14.85;;
23730;SDS011;12046;44.702;10.622;2023-02-18T08:09:23;18.75;;;14.90;;
23730;SDS011;12046;44.702;10.622;2023-02-18T08:11:49;19.67;;;14.35;;
23730;SDS011;12046;44.702;10.622;2023-02-18T08:14:14;18.98;;;14.57;;
23730;SDS011;12046;44.702;10.622;2023-02-18T08:16:40;15.85;;;14.15;;
23730;SDS011;12046;44.702;10.622;2023-02-18T08:19:06;17.35;;;15.55;;
23730;SDS011;12046;44.702;10.622;2023-02-18T08:21:32;25.15;;;15.10;;
23730;SDS011;12046;44.702;10.622;2023-02-18T08:23:58;25.60;;;15.68;;
23730;SDS011;12046;44.702;10.622;2023-02-18T08:26:24;17.10;;;14.15;;
23730;SDS011;12046;44.702;10.622;2023-02-18T08:28:51;18.08;;;14.98;;
23730;SDS011;12046;44.702;10.622;2023-02-18T08:31:17;19.08;;;15.07;;
23730;SDS011;12046;44.702;10.622;2023-02-18T08:33:45;19.80;;;15.52;;
23730;SDS011;12046;44.702;10.622;2023-02-18T08:36:11;18.67;;;14.85;;
23730;SDS011;12046;44.702;10.622;2023-02-18T08:38:37;17.35;;;14.73;;
23730;SDS011;12046;44.702;10.622;2023-02-18T08:41:04;19.00;;;15.52;;
23730;SDS011;12046;44.702;10.622;2023-02-18T08:43:31;15.02;;;13.48;;
23730;SDS011;12046;44.702;10.622;2023-02-18T08:45:57;17.38;;;14.13;;
23730;SDS011;12046;44.702;10.622;2023-02-18T08:48:23;16.73;;;14.63;;
23730;SDS011;12046;44.702;10.622;2023-02-18T08:50:50;20.55;;;14.60;;
23730;SDS011;12046;44.702;10.622;2023-02-18T08:53:16;18.67;;;14.23;;
23730;SDS011;12046;44.702;10.622;2023-02-18T08:55:42;15.52;;;13.68;;
23730;SDS011;12046;44.702;10.622;2023-02-18T08:58:08;17.42;;;14.32;;
23730;SDS011;12046;44.702;10.622;2023-02-18T09:00:36;17.55;;;14.30;;
23730;SDS011;12046;44.702;10.622;2023-02-18T09:03:03;17.17;;;15.32;;
23730;SDS011;12046;44.702;10.622;2023-02-18T09:05:29;18.33;;;16.27;;
23730;SDS011;12046;44.702;10.622;2023-02-18T09:07:58;19.45;;;15.32;;
23730;SDS011;12046;44.702;10.622;2023-02-18T09:10:23;24.13;;;15.60;;
23730;SDS011;12046;44.702;10.622;2023-02-18T09:12:49;16.75;;;15.00;;
23730;SDS011;12046;44.702;10.622;2023-02-18T09:15:15;17.73;;;14.90;;
23730;SDS011;12046;44.702;10.622;2023-02-18T09:17:42;18.88;;;15.73;;
23730;SDS011;12046;44.702;10.622;2023-02-18T09:20:08;18.02;;;16.23;;
23730;SDS011;12046;44.702;10.622;2023-02-18T09:22:34;17.83;;;15.10;;
23730;SDS011;12046;44.702;10.622;2023-02-18T09:25:00;16.95;;;15.18;;
23730;SDS011;12046;44.702;10.622;2023-02-18T09:27:27;19.50;;;16.52;;
23730;SDS011;12046;44.702;10.622;2023-02-18T09:29:53;17.60;;;15.35;;
23730;SDS011;12046;44.702;10.622;2023-02-18T09:32:18;16.10;;;14.50;;
23730;SDS011;12046;44.702;10.622;2023-02-18T09:34:44;18.75;;;15.80;;
23730;SDS011;12046;44.702;10.622;2023-02-18T09:37:10;18.00;;;16.20;;
23730;SDS011;12046;44.702;10.622;2023-02-18T09:39:36;17.02;;;15.23;;
23730;SDS011;12046;44.702;10.622;2023-02-18T09:42:03;16.38;;;14.63;;
23730;SDS011;12046;44.702;10.622;2023-02-18T09:47:04;16.85;;;15.15;;
23730;SDS011;12046;44.702;10.622;2023-02-18T09:49:37;16.25;;;14.68;;
23730;SDS011;12046;44.702;10.622;2023-02-18T09:52:18;14.88;;;13.40;;
23730;SDS011;12046;44.702;10.622;2023-02-18T09:54:56;17.55;;;15.85;;
23730;SDS011;12046;44.702;10.622;2023-02-18T10:00:09;15.32;;;13.93;;
23730;SDS011;12046;44.702;10.622;2023-02-18T10:02:40;15.13;;;13.80;;
23730;SDS011;12046;44.702;10.622;2023-02-18T10:05:23;14.70;;;13.30;;
23730;SDS011;12046;44.702;10.622;2023-02-18T10:07:52;16.17;;;14.57;;
23730;SDS011;12046;44.702;10.622;2023-02-18T10:12:54;15.70;;;14.20;;
23730;SDS011;12046;44.702;10.622;2023-02-18T10:15:22;14.10;;;13.13;;
23730;SDS011;12046;44.702;10.622;2023-02-18T10:17:51;16.10;;;14.80;;
23730;SDS011;12046;44.702;10.622;2023-02-18T10:20:19;14.40;;;13.05;;
23730;SDS011;12046;44.702;10.622;2023-02-18T10:22:49;14.70;;;13.32;;
23730;SDS011;12046;44.702;10.622;2023-02-18T10:25:18;16.88;;;15.30;;
23730;SDS011;12046;44.702;10.622;2023-02-18T10:27:46;15.90;;;14.50;;
23730;SDS011;12046;44.702;10.622;2023-02-18T10:32:42;13.90;;;12.60;;
23730;SDS011;12046;44.702;10.622;2023-02-18T10:35:28;14.30;;;13.00;;
23730;SDS011;12046;44.702;10.622;2023-02-18T10:51:53;13.00;;;11.80;;
23730;SDS011;12046;44.702;10.622;2023-02-18T10:54:25;13.32;;;12.13;;
23730;SDS011;12046;44.702;10.622;2023-02-18T10:57:22;13.22;;;12.15;;
23730;SDS011;12046;44.702;10.622;2023-02-18T11:05:41;14.77;;;12.20;;
23730;SDS011;12046;44.702;10.622;2023-02-18T11:08:10;12.35;;;11.32;;
23730;SDS011;12046;44.702;10.622;2023-02-18T11:10:42;14.82;;;11.18;;
23730;SDS011;12046;44.702;10.622;2023-02-18T11:13:11;12.85;;;11.73;;
23730;SDS011;12046;44.702;10.622;2023-02-18T11:16:03;11.82;;;10.82;;
23730;SDS011;12046;44.702;10.622;2023-02-18T11:21:06;11.88;;;11.02;;
23730;SDS011;12046;44.702;10.622;2023-02-18T11:23:55;12.23;;;11.18;;
23730;SDS011;12046;44.702;10.622;2023-02-18T11:26:31;12.35;;;11.35;;
23730;SDS011;12046;44.702;10.622;2023-02-18T11:29:00;12.20;;;11.20;;
23730;SDS011;12046;44.702;10.622;2023-02-18T11:31:40;11.55;;;10.45;;
23730;SDS011;12046;44.702;10.622;2023-02-18T11:34:13;11.63;;;10.80;;
23730;SDS011;12046;44.702;10.622;2023-02-18T11:39:31;11.05;;;9.98;;
23730;SDS011;12046;44.702;10.622;2023-02-18T11:42:00;12.73;;;11.63;;
23730;SDS011;12046;44.702;10.622;2023-02-18T11:44:33;13.13;;;10.60;;
23730;SDS011;12046;44.702;10.622;2023-02-18T11:47:18;12.07;;;10.98;;
23730;SDS011;12046;44.702;10.622;2023-02-18T11:52:47;11.18;;;10.15;;
23730;SDS011;12046;44.702;10.622;2023-02-18T11:55:18;11.52;;;10.48;;
23730;SDS011;12046;44.702;10.622;2023-02-18T11:57:48;11.43;;;10.40;;
23730;SDS011;12046;44.702;10.622;2023-02-18T12:02:54;12.10;;;11.00;;
23730;SDS011;12046;44.702;10.622;2023-02-18T12:05:23;11.90;;;10.80;;
23730;SDS011;12046;44.702;10.622;2023-02-18T12:10:45;11.90;;;10.70;;
23730;SDS011;12046;44.702;10.622;2023-02-18T12:16:14;13.45;;;12.15;;
23730;SDS011;12046;44.702;10.622;2023-02-18T12:19:02;12.27;;;11.07;;
23730;SDS011;12046;44.702;10.622;2023-02-18T12:50:45;12.70;;;11.50;;
23730;SDS011;12046;44.702;10.622;2023-02-18T13:13:17;12.65;;;11.45;;
23730;SDS011;12046;44.702;10.622;2023-02-18T13:18:24;12.18;;;11.00;;
23730;SDS011;12046;44.702;10.622;2023-02-18T13:20:59;12.63;;;11.43;;
23730;SDS011;12046;44.702;10.622;2023-02-18T13:23:36;12.30;;;10.90;;
23730;SDS011;12046;44.702;10.622;2023-02-18T13:26:21;12.23;;;10.95;;
23730;SDS011;12046;44.702;10.622;2023-02-18T13:28:51;12.98;;;11.57;;
23730;SDS011;12046;44.702;10.622;2023-02-18T13:31:38;12.73;;;11.43;;
23730;SDS011;12046;44.702;10.622;2023-02-18T13:39:57;19.02;;;11.48;;
23730;SDS011;12046;44.702;10.622;2023-02-18T13:47:43;12.02;;;10.75;;
23730;SDS011;12046;44.702;10.622;2023-02-18T13:53:11;14.63;;;11.82;;
23730;SDS011;12046;44.702;10.622;2023-02-18T14:01:46;13.77;;;12.48;;
23730;SDS011;12046;44.702;10.622;2023-02-18T14:20:42;14.90;;;13.40;;
23730;SDS011;12046;44.702;10.622;2023-02-18T14:31:00;14.00;;;12.45;;
23730;SDS011;12046;44.702;10.622;2023-02-18T14:33:27;13.82;;;12.52;;
23730;SDS011;12046;44.702;10.622;2023-02-18T14:36:05;15.27;;;13.68;;
23730;SDS011;12046;44.702;10.622;2023-02-18T14:38:53;16.63;;;13.38;;
23730;SDS011;12046;44.702;10.622;2023-02-18T14:41:31;14.73;;;13.00;;
23730;SDS011;12046;44.702;10.622;2023-02-18T14:47:02;14.55;;;13.10;;
23730;SDS011;12046;44.702;10.622;2023-02-18T14:49:51;14.55;;;13.15;;
23730;SDS011;12046;44.702;10.622;2023-02-18T14:52:40;16.80;;;15.27;;
23730;SDS011;12046;44.702;10.622;2023-02-18T14:55:15;15.43;;;13.93;;
23730;SDS011;12046;44.702;10.622;2023-02-18T15:00:54;15.43;;;13.88;;
23730;SDS011;12046;44.702;10.622;2023-02-18T15:03:20;16.13;;;14.43;;
23730;SDS011;12046;44.702;10.622;2023-02-18T15:05:51;12.57;;;11.48;;
23730;SDS011;12046;44.702;10.622;2023-02-18T15:08:20;15.98;;;14.27;;
23730;SDS011;12046;44.702;10.622;2023-02-18T15:10:58;15.70;;;14.20;;
23730;SDS011;12046;44.702;10.622;2023-02-18T15:13:35;14.48;;;13.25;;
23730;SDS011;12046;44.702;10.622;2023-02-18T15:16:11;15.00;;;13.57;;
23730;SDS011;12046;44.702;10.622;2023-02-18T15:18:54;14.63;;;13.15;;
23730;SDS011;12046;44.702;10.622;2023-02-18T15:21:27;14.90;;;13.52;;
23730;SDS011;12046;44.702;10.622;2023-02-18T15:24:05;14.65;;;13.15;;
23730;SDS011;12046;44.702;10.622;2023-02-18T15:26:34;16.20;;;14.70;;
23730;SDS011;12046;44.702;10.622;2023-02-18T15:29:05;13.70;;;12.55;;
23730;SDS011;12046;44.702;10.622;2023-02-18T15:31:46;14.52;;;13.27;;
23730;SDS011;12046;44.702;10.622;2023-02-18T15:36:54;15.50;;;14.15;;
23730;SDS011;12046;44.702;10.622;2023-02-18T15:39:21;15.25;;;13.85;;
23730;SDS011;12046;44.702;10.622;2023-02-18T15:41:52;15.48;;;13.98;;
23730;SDS011;12046;44.702;10.622;2023-02-18T15:44:27;15.55;;;14.13;;
23730;SDS011;12046;44.702;10.622;2023-02-18T15:46:58;17.20;;;14.65;;
23730;SDS011;12046;44.702;10.622;2023-02-18T15:49:31;14.82;;;13.63;;
23730;SDS011;12046;44.702;10.622;2023-02-18T15:51:58;15.10;;;13.70;;
23730;SDS011;12046;44.702;10.622;2023-02-18T15:54:29;15.10;;;13.70;;
23730;SDS011;12046;44.702;10.622;2023-02-18T15:56:57;15.13;;;13.68;;
23730;SDS011;12046;44.702;10.622;2023-02-18T16:04:38;15.73;;;14.20;;
23730;SDS011;12046;44.702;10.622;2023-02-18T16:07:26;15.43;;;13.75;;
23730;SDS011;12046;44.702;10.622;2023-02-18T16:12:33;15.77;;;14.15;;
23730;SDS011;12046;44.702;10.622;2023-02-18T16:15:02;14.35;;;12.88;;
23730;SDS011;12046;44.702;10.622;2023-02-18T16:17:29;15.17;;;13.43;;
23730;SDS011;12046;44.702;10.622;2023-02-18T16:19:59;15.75;;;13.48;;
23730;SDS011;12046;44.702;10.622;2023-02-18T16:22:33;15.77;;;14.13;;
23730;SDS011;12046;44.702;10.622;2023-02-18T16:25:07;14.63;;;12.87;;
23730;SDS011;12046;44.702;10.622;2023-02-18T16:32:49;16.17;;;14.13;;
23730;SDS011;12046;44.702;10.622;2023-02-18T16:35:16;15.68;;;14.07;;
23730;SDS011;12046;44.702;10.622;2023-02-18T16:37:42;15.85;;;14.18;;
23730;SDS011;12046;44.702;10.622;2023-02-18T16:42:54;15.48;;;13.88;;
23730;SDS011;12046;44.702;10.622;2023-02-18T16:45:23;17.38;;;15.68;;
23730;SDS011;12046;44.702;10.622;2023-02-18T16:48:01;17.52;;;15.70;;
23730;SDS011;12046;44.702;10.622;2023-02-18T16:50:28;18.50;;;16.25;;
23730;SDS011;12046;44.702;10.622;2023-02-18T16:52:56;19.85;;;16.67;;
23730;SDS011;12046;44.702;10.622;2023-02-18T16:55:23;18.02;;;15.98;;
23730;SDS011;12046;44.702;10.622;2023-02-18T16:57:51;17.23;;;15.43;;
23730;SDS011;12046;44.702;10.622;2023-02-18T17:00:17;16.92;;;15.20;;
23730;SDS011;12046;44.702;10.622;2023-02-18T17:02:53;18.08;;;15.85;;
23730;SDS011;12046;44.702;10.622;2023-02-18T17:05:23;17.65;;;15.80;;
23730;SDS011;12046;44.702;10.622;2023-02-18T17:07:52;20.33;;;16.73;;
23730;SDS011;12046;44.702;10.622;2023-02-18T17:10:18;19.58;;;16.38;;
23730;SDS011;12046;44.702;10.622;2023-02-18T17:12:44;20.35;;;16.67;;
23730;SDS011;12046;44.702;10.622;2023-02-18T17:17:52;23.40;;;20.88;;
23730;SDS011;12046;44.702;10.622;2023-02-18T17:20:18;26.20;;;21.42;;
23730;SDS011;12046;44.702;10.622;2023-02-18T17:22:44;22.58;;;18.75;;
23730;SDS011;12046;44.702;10.622;2023-02-18T17:25:17;20.77;;;18.45;;
23730;SDS011;12046;44.702;10.622;2023-02-18T17:27:45;22.25;;;17.75;;
23730;SDS011;12046;44.702;10.622;2023-02-18T17:30:11;19.08;;;17.17;;
23730;SDS011;12046;44.702;10.622;2023-02-18T17:32:37;19.80;;;16.40;;
23730;SDS011;12046;44.702;10.622;2023-02-18T17:35:03;19.77;;;17.67;;
23730;SDS011;12046;44.702;10.622;2023-02-18T17:37:29;20.48;;;17.65;;
23730;SDS011;12046;44.702;10.622;2023-02-18T17:40:00;20.00;;;17.55;;
23730;SDS011;12046;44.702;10.622;2023-02-18T17:42:26;23.48;;;17.98;;
23730;SDS011;12046;44.702;10.622;2023-02-18T17:44:52;23.38;;;18.13;;
23730;SDS011;12046;44.702;10.622;2023-02-18T17:47:17;26.58;;;19.20;;
23730;SDS011;12046;44.702;10.622;2023-02-18T17:49:43;21.73;;;17.77;;
23730;SDS011;12046;44.702;10.622;2023-02-18T17:52:14;20.92;;;18.25;;
23730;SDS011;12046;44.702;10.622;2023-02-18T17:54:51;24.13;;;19.67;;
23730;SDS011;12046;44.702;10.622;2023-02-18T17:57:17;25.77;;;19.27;;
23730;SDS011;12046;44.702;10.622;2023-02-18T17:59:43;21.73;;;18.30;;
23730;SDS011;12046;44.702;10.622;2023-02-18T18:02:26;28.25;;;19.45;;